Shao Shan 5 — VRKO9 — position and weather

sailwx.info

Track history (hours):
 
Tides and Currents Weather Stations Pressure Air Temp Water Temp Dewpoint Dewpoint Depression Visibility Wind Speed Wind Dir Waves Ship Positions

Shao Shan 5

Last reported at 2014-Sep-03 01:33 UTC. Time now 2014-Sep-03 02:19 UTC.
Position N 52°32' E 004°15'.

Length 225 m; draft 7.1 m.

Type: Cargo ship. MMSI: 477325700.

Date/timePositionNaut miles runAvg speedWind from/ knotsBaromVisibWave heightAir tempDewpointWater temp
2014-Sep-03 01:33N 52°32' E 004°15'0 0.0
2014-Sep-03 00:33N 52°32' E 004°15'0 0.2
2014-Sep-02 23:33N 52°32' E 004°15'0 0.0
2014-Sep-02 22:33N 52°32' E 004°15'0 0.0
2014-Sep-02 21:33N 52°32' E 004°15'0 0.0
2014-Sep-02 20:33N 52°32' E 004°15'0 0.0
2014-Sep-02 19:33N 52°32' E 004°15'0 0.2
2014-Sep-02 18:33N 52°32' E 004°14'0 0.1
2014-Sep-02 17:33N 52°32' E 004°14'0 0.0
2014-Sep-02 16:33N 52°32' E 004°15'0 0.0
2014-Sep-02 15:33N 52°32' E 004°15'0 0.0
2014-Sep-02 14:33N 52°32' E 004°15'0 0.0
2014-Sep-02 13:33N 52°32' E 004°15'0 0.0
2014-Sep-02 12:33N 52°32' E 004°15'4 3.6
2014-Sep-02 11:33N 52°32' E 004°21'9 8.7
2014-Sep-02 10:33N 52°28' E 004°33'3 2.6
2014-Sep-02 09:33N 52°28' E 004°38'7 6.9
2014-Sep-02 08:33N 52°25' E 004°48'1 0.7
2014-Sep-02 07:32N 52°25' E 004°49'0 0.0
2014-Sep-02 06:32N 52°25' E 004°49'0 0.0
2014-Sep-02 05:32N 52°25' E 004°49'0 0.0
2014-Sep-02 04:32N 52°25' E 004°49'0 0.0
2014-Sep-02 03:32N 52°25' E 004°49'0 0.0
2014-Sep-02 02:32N 52°25' E 004°49'0 0.0
2014-Sep-02 01:32N 52°25' E 004°49'0 0.0
2014-Sep-02 00:32N 52°25' E 004°49'0 0.0
2014-Sep-01 23:32N 52°25' E 004°49'0 0.0
2014-Sep-01 22:32N 52°25' E 004°49'0 0.0
2014-Sep-01 21:32N 52°25' E 004°49'0 0.0
2014-Sep-01 20:32N 52°25' E 004°49'0 0.0
2014-Sep-01 19:32N 52°25' E 004°49'0 0.0
2014-Sep-01 18:32N 52°25' E 004°49'0 0.0
2014-Sep-01 17:32N 52°25' E 004°49'0 0.0
2014-Sep-01 16:32N 52°25' E 004°49'0 0.0
2014-Sep-01 15:32N 52°25' E 004°49'0 0.0
2014-Sep-01 14:32N 52°25' E 004°49'0 0.0
2014-Sep-01 13:32N 52°25' E 004°49'0 0.0
2014-Sep-01 12:32N 52°25' E 004°49'0 0.0
2014-Sep-01 11:32N 52°25' E 004°49'0 0.0
2014-Sep-01 10:32N 52°25' E 004°49'0 0.0
2014-Sep-01 09:32N 52°25' E 004°49'0 0.0
2014-Sep-01 08:32N 52°25' E 004°49'0 0.0
2014-Sep-01 07:32N 52°25' E 004°49'0 0.0
2014-Sep-01 06:32N 52°25' E 004°49'0 0.0
2014-Sep-01 05:32N 52°25' E 004°49'0 0.0
2014-Sep-01 04:32N 52°25' E 004°49'0 0.0
2014-Sep-01 03:32N 52°25' E 004°49'0 0.0
2014-Sep-01 02:32N 52°25' E 004°49'0 0.0
2014-Sep-01 01:32N 52°25' E 004°49'0 0.0
2014-Sep-01 00:32N 52°25' E 004°49'0 0.0
2014-Aug-31 23:32N 52°25' E 004°49'0 0.0
2014-Aug-31 22:32N 52°25' E 004°49'0 0.0
2014-Aug-31 21:32N 52°25' E 004°49'0 0.0
2014-Aug-31 20:32N 52°25' E 004°49'0 0.0
2014-Aug-31 19:32N 52°25' E 004°49'0 0.0
2014-Aug-31 18:32N 52°25' E 004°49'0 0.0
2014-Aug-31 17:32N 52°25' E 004°49'0 0.0
2014-Aug-31 16:32N 52°25' E 004°49'0 0.0
2014-Aug-31 15:32N 52°25' E 004°49'0 0.0
2014-Aug-31 14:32N 52°25' E 004°49'0 0.0
2014-Aug-31 13:32N 52°25' E 004°49'0 0.0
2014-Aug-31 12:32N 52°25' E 004°49'0 0.0
2014-Aug-31 11:32N 52°25' E 004°49'0 0.0
2014-Aug-31 10:33N 52°25' E 004°49'3 3.4
2014-Aug-31 09:34N 52°26' E 004°44'5 4.9
2014-Aug-31 08:34N 52°28' E 004°37'2 1.5
2014-Aug-31 07:34N 52°28' E 004°34'8 8.1
2014-Aug-31 06:33N 52°29' E 004°21'5 4.7
2014-Aug-31 05:33N 52°28' E 004°13'2 2.3
2014-Aug-31 04:33N 52°29' E 004°10'2 2.4
2014-Aug-31 03:33N 52°31' E 004°08'3 3.4
2014-Aug-31 02:33N 52°34' E 004°05'7 7.3
2014-Aug-31 01:33N 52°41' E 004°01'1711.5
2014-Aug-31 00:06N 52°57' E 004°00'711.9
2014-Aug-30 23:29N 53°02' E 004°10'1111.2
2014-Aug-30 22:32N 53°09' E 004°23'10 9.8
2014-Aug-30 21:29N 53°19' E 004°30'910.2
2014-Aug-30 20:33N 53°28' E 004°35'1110.1
2014-Aug-30 19:31N 53°38' E 004°40'1010.5
2014-Aug-30 18:31N 53°47' E 004°46'1111.1
2014-Aug-30 17:33N 53°58' E 004°53'4611.0
2014-Aug-30 13:21N 54°42' E 005°18'910.7
2014-Aug-30 12:33N 54°50' E 005°23'23410.2
2014-Aug-29 13:30N 57°49' E 009°55'1111.3
2014-Aug-29 12:33N 57°54' E 010°13'1010.3
2014-Aug-29 11:33N 57°55' E 010°32'1211.9
2014-Aug-29 10:33N 57°47' E 010°49'1110.9
2014-Aug-29 09:33N 57°39' E 011°03'1111.4
2014-Aug-29 08:33N 57°31' E 011°19'1110.8
2014-Aug-29 07:33N 57°22' E 011°30'1111.2
2014-Aug-29 06:33N 57°12' E 011°36'1111.2
2014-Aug-29 05:33N 57°01' E 011°44'1111.0
2014-Aug-29 04:32N 56°50' E 011°50'1010.6
2014-Aug-29 03:33N 56°40' E 011°49'1211.6
2014-Aug-29 02:33N 56°30' E 011°38'1111.5
2014-Aug-29 01:33N 56°20' E 011°27'1211.1
2014-Aug-29 00:31N 56°10' E 011°16'1110.8
2014-Aug-28 23:30N 56°01' E 011°06'51 9.7
2014-Aug-28 18:16N 55°10' E 011°02'3210.4
2014-Aug-28 15:12N 54°39' E 010°50'1211.1
2014-Aug-28 14:07N 54°36' E 011°10'711.3
2014-Aug-28 13:31N 54°33' E 011°21'1111.2
2014-Aug-28 12:33N 54°29' E 011°38'1111.2
2014-Aug-28 11:33N 54°27' E 011°57'10 9.6
2014-Aug-28 10:33N 54°30' E 012°13'10 9.6
2014-Aug-28 09:33N 54°38' E 012°20'1110.9
2014-Aug-28 08:33N 54°44' E 012°36'1111.1
2014-Aug-28 07:33N 54°49' E 012°53'1111.4
2014-Aug-28 06:33N 54°53' E 013°12'1111.4
2014-Aug-28 05:33N 54°57' E 013°30'1111.1
2014-Aug-28 04:33N 55°01' E 013°49'1111.2
2014-Aug-28 03:33N 55°05' E 014°06'1211.5
2014-Aug-28 02:33N 55°14' E 014°19'1211.6
2014-Aug-28 01:33N 55°24' E 014°31'1111.2
2014-Aug-28 00:33N 55°30' E 014°47'1311.5
2014-Aug-27 23:27N 55°36' E 015°07'1011.3
2014-Aug-27 22:32N 55°39' E 015°25'1111.3
2014-Aug-27 21:33N 55°42' E 015°44'4511.2
2014-Aug-27 17:33N 55°53' E 017°01'1111.1
2014-Aug-27 16:33N 55°55' E 017°20'1111.1
2014-Aug-27 15:33N 55°58' E 017°39'  
Track history (hours):
 
Tides and Currents Weather Stations Pressure Air Temp Water Temp Dewpoint Dewpoint Depression Visibility Wind Speed Wind Dir Waves Ship Positions

Shao Shan 5

Last reported at 2014-Sep-03 01:33 UTC. Time now 2014-Sep-03 02:19 UTC.
Position N 52°32' E 004°15'.

Length 225 m; draft 7.1 m.

Type: Cargo ship. MMSI: 477325700.

Date/timePositionNaut miles runAvg speedWind from/ knotsBaromVisibWave heightAir tempDewpointWater temp
2014-Sep-03 01:33N 52°32' E 004°15'0 0.0
2014-Sep-03 00:33N 52°32' E 004°15'0 0.2
2014-Sep-02 23:33N 52°32' E 004°15'0 0.0
2014-Sep-02 22:33N 52°32' E 004°15'0 0.0
2014-Sep-02 21:33N 52°32' E 004°15'0 0.0
2014-Sep-02 20:33N 52°32' E 004°15'0 0.0
2014-Sep-02 19:33N 52°32' E 004°15'0 0.2
2014-Sep-02 18:33N 52°32' E 004°14'0 0.1
2014-Sep-02 17:33N 52°32' E 004°14'0 0.0
2014-Sep-02 16:33N 52°32' E 004°15'0 0.0
2014-Sep-02 15:33N 52°32' E 004°15'0 0.0
2014-Sep-02 14:33N 52°32' E 004°15'0 0.0
2014-Sep-02 13:33N 52°32' E 004°15'0 0.0
2014-Sep-02 12:33N 52°32' E 004°15'4 3.6
2014-Sep-02 11:33N 52°32' E 004°21'9 8.7
2014-Sep-02 10:33N 52°28' E 004°33'3 2.6
2014-Sep-02 09:33N 52°28' E 004°38'7 6.9
2014-Sep-02 08:33N 52°25' E 004°48'1 0.7
2014-Sep-02 07:32N 52°25' E 004°49'0 0.0
2014-Sep-02 06:32N 52°25' E 004°49'0 0.0
2014-Sep-02 05:32N 52°25' E 004°49'0 0.0
2014-Sep-02 04:32N 52°25' E 004°49'0 0.0
2014-Sep-02 03:32N 52°25' E 004°49'0 0.0
2014-Sep-02 02:32N 52°25' E 004°49'0 0.0
2014-Sep-02 01:32N 52°25' E 004°49'0 0.0
2014-Sep-02 00:32N 52°25' E 004°49'0 0.0
2014-Sep-01 23:32N 52°25' E 004°49'0 0.0
2014-Sep-01 22:32N 52°25' E 004°49'0 0.0
2014-Sep-01 21:32N 52°25' E 004°49'0 0.0
2014-Sep-01 20:32N 52°25' E 004°49'0 0.0
2014-Sep-01 19:32N 52°25' E 004°49'0 0.0
2014-Sep-01 18:32N 52°25' E 004°49'0 0.0
2014-Sep-01 17:32N 52°25' E 004°49'0 0.0
2014-Sep-01 16:32N 52°25' E 004°49'0 0.0
2014-Sep-01 15:32N 52°25' E 004°49'0 0.0
2014-Sep-01 14:32N 52°25' E 004°49'0 0.0
2014-Sep-01 13:32N 52°25' E 004°49'0 0.0
2014-Sep-01 12:32N 52°25' E 004°49'0 0.0
2014-Sep-01 11:32N 52°25' E 004°49'0 0.0
2014-Sep-01 10:32N 52°25' E 004°49'0 0.0
2014-Sep-01 09:32N 52°25' E 004°49'0 0.0
2014-Sep-01 08:32N 52°25' E 004°49'0 0.0
2014-Sep-01 07:32N 52°25' E 004°49'0 0.0
2014-Sep-01 06:32N 52°25' E 004°49'0 0.0
2014-Sep-01 05:32N 52°25' E 004°49'0 0.0
2014-Sep-01 04:32N 52°25' E 004°49'0 0.0
2014-Sep-01 03:32N 52°25' E 004°49'0 0.0
2014-Sep-01 02:32N 52°25' E 004°49'0 0.0
2014-Sep-01 01:32N 52°25' E 004°49'0 0.0
2014-Sep-01 00:32N 52°25' E 004°49'0 0.0
2014-Aug-31 23:32N 52°25' E 004°49'0 0.0
2014-Aug-31 22:32N 52°25' E 004°49'0 0.0
2014-Aug-31 21:32N 52°25' E 004°49'0 0.0
2014-Aug-31 20:32N 52°25' E 004°49'0 0.0
2014-Aug-31 19:32N 52°25' E 004°49'0 0.0
2014-Aug-31 18:32N 52°25' E 004°49'0 0.0
2014-Aug-31 17:32N 52°25' E 004°49'0 0.0
2014-Aug-31 16:32N 52°25' E 004°49'0 0.0
2014-Aug-31 15:32N 52°25' E 004°49'0 0.0
2014-Aug-31 14:32N 52°25' E 004°49'0 0.0
2014-Aug-31 13:32N 52°25' E 004°49'0 0.0
2014-Aug-31 12:32N 52°25' E 004°49'0 0.0
2014-Aug-31 11:32N 52°25' E 004°49'0 0.0
2014-Aug-31 10:33N 52°25' E 004°49'3 3.4
2014-Aug-31 09:34N 52°26' E 004°44'5 4.9
2014-Aug-31 08:34N 52°28' E 004°37'2 1.5
2014-Aug-31 07:34N 52°28' E 004°34'8 8.1
2014-Aug-31 06:33N 52°29' E 004°21'5 4.7
2014-Aug-31 05:33N 52°28' E 004°13'2 2.3
2014-Aug-31 04:33N 52°29' E 004°10'2 2.4
2014-Aug-31 03:33N 52°31' E 004°08'3 3.4
2014-Aug-31 02:33N 52°34' E 004°05'7 7.3
2014-Aug-31 01:33N 52°41' E 004°01'1711.5
2014-Aug-31 00:06N 52°57' E 004°00'711.9
2014-Aug-30 23:29N 53°02' E 004°10'1111.2
2014-Aug-30 22:32N 53°09' E 004°23'10 9.8
2014-Aug-30 21:29N 53°19' E 004°30'910.2
2014-Aug-30 20:33N 53°28' E 004°35'1110.1
2014-Aug-30 19:31N 53°38' E 004°40'1010.5
2014-Aug-30 18:31N 53°47' E 004°46'1111.1
2014-Aug-30 17:33N 53°58' E 004°53'4611.0
2014-Aug-30 13:21N 54°42' E 005°18'910.7
2014-Aug-30 12:33N 54°50' E 005°23'23410.2
2014-Aug-29 13:30N 57°49' E 009°55'1111.3
2014-Aug-29 12:33N 57°54' E 010°13'1010.3
2014-Aug-29 11:33N 57°55' E 010°32'1211.9
2014-Aug-29 10:33N 57°47' E 010°49'1110.9
2014-Aug-29 09:33N 57°39' E 011°03'1111.4
2014-Aug-29 08:33N 57°31' E 011°19'1110.8
2014-Aug-29 07:33N 57°22' E 011°30'1111.2
2014-Aug-29 06:33N 57°12' E 011°36'1111.2
2014-Aug-29 05:33N 57°01' E 011°44'1111.0
2014-Aug-29 04:32N 56°50' E 011°50'1010.6
2014-Aug-29 03:33N 56°40' E 011°49'1211.6
2014-Aug-29 02:33N 56°30' E 011°38'1111.5
2014-Aug-29 01:33N 56°20' E 011°27'1211.1
2014-Aug-29 00:31N 56°10' E 011°16'1110.8
2014-Aug-28 23:30N 56°01' E 011°06'51 9.7
2014-Aug-28 18:16N 55°10' E 011°02'3210.4
2014-Aug-28 15:12N 54°39' E 010°50'1211.1
2014-Aug-28 14:07N 54°36' E 011°10'711.3
2014-Aug-28 13:31N 54°33' E 011°21'1111.2
2014-Aug-28 12:33N 54°29' E 011°38'1111.2
2014-Aug-28 11:33N 54°27' E 011°57'10 9.6
2014-Aug-28 10:33N 54°30' E 012°13'10 9.6
2014-Aug-28 09:33N 54°38' E 012°20'1110.9
2014-Aug-28 08:33N 54°44' E 012°36'1111.1
2014-Aug-28 07:33N 54°49' E 012°53'1111.4
2014-Aug-28 06:33N 54°53' E 013°12'1111.4
2014-Aug-28 05:33N 54°57' E 013°30'1111.1
2014-Aug-28 04:33N 55°01' E 013°49'1111.2
2014-Aug-28 03:33N 55°05' E 014°06'1211.5
2014-Aug-28 02:33N 55°14' E 014°19'1211.6
2014-Aug-28 01:33N 55°24' E 014°31'1111.2
2014-Aug-28 00:33N 55°30' E 014°47'1311.5
2014-Aug-27 23:27N 55°36' E 015°07'1011.3
2014-Aug-27 22:32N 55°39' E 015°25'1111.3
2014-Aug-27 21:33N 55°42' E 015°44'4511.2
2014-Aug-27 17:33N 55°53' E 017°01'1111.1
2014-Aug-27 16:33N 55°55' E 017°20'1111.1
2014-Aug-27 15:33N 55°58' E 017°39'  

Dump ship's entire track history